sensor_id;sensor_type;location;lat;lon;timestamp;pressure;altitude;pressure_sealevel;temperature;humidity
48652;BME280;34442;52.362;-1.302;2023-12-20T00:00:22;100675.59;;;6.31;100.00
48652;BME280;34442;52.362;-1.302;2023-12-20T00:02:47;100679.41;;;6.36;100.00
48652;BME280;34442;52.362;-1.302;2023-12-20T00:05:14;100663.09;;;7.02;100.00
48652;BME280;34442;52.362;-1.302;2023-12-20T00:07:39;100660.91;;;7.28;100.00
48652;BME280;34442;52.362;-1.302;2023-12-20T00:10:05;100646.88;;;7.26;100.00
48652;BME280;34442;52.362;-1.302;2023-12-20T00:12:31;100651.94;;;7.21;100.00
48652;BME280;34442;52.362;-1.302;2023-12-20T00:14:56;100656.28;;;7.22;100.00
48652;BME280;34442;52.362;-1.302;2023-12-20T00:17:21;100654.97;;;7.18;100.00
48652;BME280;34442;52.362;-1.302;2023-12-20T00:19:47;100653.34;;;7.32;100.00
48652;BME280;34442;52.362;-1.302;2023-12-20T00:22:12;100652.81;;;7.36;100.00
48652;BME280;34442;52.362;-1.302;2023-12-20T00:24:38;100639.06;;;7.25;100.00
48652;BME280;34442;52.362;-1.302;2023-12-20T00:27:03;100649.44;;;7.19;100.00
48652;BME280;34442;52.362;-1.302;2023-12-20T00:29:29;100655.94;;;7.25;100.00
48652;BME280;34442;52.362;-1.302;2023-12-20T00:32:00;100643.78;;;7.14;100.00
48652;BME280;34442;52.362;-1.302;2023-12-20T00:34:25;100653.72;;;7.29;100.00
48652;BME280;34442;52.362;-1.302;2023-12-20T00:36:50;100638.97;;;7.10;100.00
48652;BME280;34442;52.362;-1.302;2023-12-20T00:39:16;100639.81;;;7.10;100.00
48652;BME280;34442;52.362;-1.302;2023-12-20T00:41:41;100635.66;;;7.08;100.00
48652;BME280;34442;52.362;-1.302;2023-12-20T00:44:07;100639.28;;;7.15;100.00
48652;BME280;34442;52.362;-1.302;2023-12-20T00:46:32;100640.41;;;7.20;100.00
48652;BME280;34442;52.362;-1.302;2023-12-20T00:48:58;100631.63;;;7.12;100.00
48652;BME280;34442;52.362;-1.302;2023-12-20T00:51:23;100634.31;;;7.12;100.00
48652;BME280;34442;52.362;-1.302;2023-12-20T00:53:50;100641.22;;;6.98;100.00
48652;BME280;34442;52.362;-1.302;2023-12-20T00:56:15;100638.88;;;6.72;100.00
48652;BME280;34442;52.362;-1.302;2023-12-20T00:58:41;100640.88;;;7.01;100.00
48652;BME280;34442;52.362;-1.302;2023-12-20T01:01:06;100635.53;;;7.01;100.00
48652;BME280;34442;52.362;-1.302;2023-12-20T01:03:32;100641.41;;;6.96;100.00
48652;BME280;34442;52.362;-1.302;2023-12-20T01:05:57;100639.63;;;6.89;100.00
48652;BME280;34442;52.362;-1.302;2023-12-20T01:08:23;100646.50;;;6.83;100.00
48652;BME280;34442;52.362;-1.302;2023-12-20T01:10:48;100637.25;;;6.94;100.00
48652;BME280;34442;52.362;-1.302;2023-12-20T01:13:14;100632.47;;;7.12;100.00
48652;BME280;34442;52.362;-1.302;2023-12-20T01:15:39;100620.44;;;7.31;100.00
48652;BME280;34442;52.362;-1.302;2023-12-20T01:18:05;100629.94;;;7.34;100.00
48652;BME280;34442;52.362;-1.302;2023-12-20T01:20:30;100636.81;;;7.28;100.00
48652;BME280;34442;52.362;-1.302;2023-12-20T01:22:56;100628.94;;;7.58;100.00
48652;BME280;34442;52.362;-1.302;2023-12-20T01:25:21;100633.09;;;7.37;100.00
48652;BME280;34442;52.362;-1.302;2023-12-20T01:27:47;100630.91;;;7.41;100.00
48652;BME280;34442;52.362;-1.302;2023-12-20T01:30:13;100628.38;;;7.39;100.00
48652;BME280;34442;52.362;-1.302;2023-12-20T01:32:38;100629.69;;;7.43;100.00
48652;BME280;34442;52.362;-1.302;2023-12-20T01:35:04;100623.97;;;7.69;100.00
48652;BME280;34442;52.362;-1.302;2023-12-20T01:37:29;100617.66;;;7.62;100.00
48652;BME280;34442;52.362;-1.302;2023-12-20T01:39:54;100619.41;;;7.55;100.00
48652;BME280;34442;52.362;-1.302;2023-12-20T01:42:20;100613.00;;;7.41;100.00
48652;BME280;34442;52.362;-1.302;2023-12-20T01:44:45;100603.16;;;7.42;100.00
48652;BME280;34442;52.362;-1.302;2023-12-20T01:47:13;100602.94;;;7.43;100.00
48652;BME280;34442;52.362;-1.302;2023-12-20T01:49:42;100603.69;;;7.37;100.00
48652;BME280;34442;52.362;-1.302;2023-12-20T01:52:08;100598.56;;;7.51;100.00
48652;BME280;34442;52.362;-1.302;2023-12-20T01:54:35;100601.69;;;7.54;100.00
48652;BME280;34442;52.362;-1.302;2023-12-20T01:57:01;100607.44;;;7.66;100.00
48652;BME280;34442;52.362;-1.302;2023-12-20T01:59:28;100600.53;;;7.71;100.00
48652;BME280;34442;52.362;-1.302;2023-12-20T02:01:54;100606.22;;;7.68;100.00
48652;BME280;34442;52.362;-1.302;2023-12-20T02:04:19;100611.50;;;7.77;100.00
48652;BME280;34442;52.362;-1.302;2023-12-20T02:06:46;100612.22;;;7.56;100.00
48652;BME280;34442;52.362;-1.302;2023-12-20T02:09:11;100609.97;;;7.82;100.00
48652;BME280;34442;52.362;-1.302;2023-12-20T02:11:37;100607.00;;;7.92;100.00
48652;BME280;34442;52.362;-1.302;2023-12-20T02:14:03;100608.94;;;7.98;100.00
48652;BME280;34442;52.362;-1.302;2023-12-20T02:16:29;100603.31;;;7.93;100.00
48652;BME280;34442;52.362;-1.302;2023-12-20T02:18:55;100614.28;;;7.83;100.00
48652;BME280;34442;52.362;-1.302;2023-12-20T02:21:25;100605.59;;;7.81;100.00
48652;BME280;34442;52.362;-1.302;2023-12-20T02:23:50;100603.31;;;7.78;100.00
48652;BME280;34442;52.362;-1.302;2023-12-20T02:26:16;100599.59;;;7.94;100.00
48652;BME280;34442;52.362;-1.302;2023-12-20T02:28:41;100598.03;;;7.85;100.00
48652;BME280;34442;52.362;-1.302;2023-12-20T02:31:07;100599.34;;;7.89;100.00
48652;BME280;34442;52.362;-1.302;2023-12-20T02:33:32;100607.03;;;8.07;100.00
48652;BME280;34442;52.362;-1.302;2023-12-20T02:35:58;100597.69;;;8.17;100.00
48652;BME280;34442;52.362;-1.302;2023-12-20T02:38:23;100595.00;;;8.32;100.00
48652;BME280;34442;52.362;-1.302;2023-12-20T02:40:49;100603.66;;;8.34;100.00
48652;BME280;34442;52.362;-1.302;2023-12-20T02:43:14;100603.03;;;8.32;100.00
48652;BME280;34442;52.362;-1.302;2023-12-20T02:45:40;100614.78;;;8.31;100.00
48652;BME280;34442;52.362;-1.302;2023-12-20T02:48:09;100618.38;;;8.38;100.00
48652;BME280;34442;52.362;-1.302;2023-12-20T02:50:37;100613.94;;;8.60;100.00
48652;BME280;34442;52.362;-1.302;2023-12-20T02:53:02;100614.59;;;8.48;100.00
48652;BME280;34442;52.362;-1.302;2023-12-20T02:55:28;100619.66;;;8.42;100.00
48652;BME280;34442;52.362;-1.302;2023-12-20T02:57:53;100614.88;;;8.38;100.00
48652;BME280;34442;52.362;-1.302;2023-12-20T03:00:18;100622.63;;;8.48;100.00
48652;BME280;34442;52.362;-1.302;2023-12-20T03:02:45;100619.50;;;8.44;100.00
48652;BME280;34442;52.362;-1.302;2023-12-20T03:05:10;100624.91;;;8.21;100.00
48652;BME280;34442;52.362;-1.302;2023-12-20T03:07:37;100619.94;;;8.33;100.00
48652;BME280;34442;52.362;-1.302;2023-12-20T03:10:04;100623.25;;;8.35;100.00
48652;BME280;34442;52.362;-1.302;2023-12-20T03:12:29;100615.88;;;8.22;100.00
48652;BME280;34442;52.362;-1.302;2023-12-20T03:14:55;100607.19;;;8.05;100.00
48652;BME280;34442;52.362;-1.302;2023-12-20T03:17:20;100607.09;;;8.43;100.00
48652;BME280;34442;52.362;-1.302;2023-12-20T03:19:46;100593.69;;;8.43;100.00
48652;BME280;34442;52.362;-1.302;2023-12-20T03:22:11;100602.09;;;8.55;100.00
48652;BME280;34442;52.362;-1.302;2023-12-20T03:24:37;100593.69;;;8.58;100.00
48652;BME280;34442;52.362;-1.302;2023-12-20T03:27:02;100594.06;;;8.55;100.00
48652;BME280;34442;52.362;-1.302;2023-12-20T03:29:28;100589.81;;;8.60;100.00
48652;BME280;34442;52.362;-1.302;2023-12-20T03:31:53;100582.16;;;8.42;100.00
48652;BME280;34442;52.362;-1.302;2023-12-20T03:34:19;100584.56;;;8.52;100.00
48652;BME280;34442;52.362;-1.302;2023-12-20T03:36:44;100582.97;;;8.43;100.00
48652;BME280;34442;52.362;-1.302;2023-12-20T03:39:12;100575.78;;;8.29;100.00
48652;BME280;34442;52.362;-1.302;2023-12-20T03:41:38;100562.13;;;8.38;100.00
48652;BME280;34442;52.362;-1.302;2023-12-20T03:44:03;100561.38;;;8.44;100.00
48652;BME280;34442;52.362;-1.302;2023-12-20T03:46:29;100558.13;;;8.49;100.00
48652;BME280;34442;52.362;-1.302;2023-12-20T03:48:54;100553.53;;;8.43;100.00
48652;BME280;34442;52.362;-1.302;2023-12-20T03:51:20;100553.25;;;8.38;100.00
48652;BME280;34442;52.362;-1.302;2023-12-20T03:53:45;100546.03;;;8.53;100.00
48652;BME280;34442;52.362;-1.302;2023-12-20T03:56:10;100540.22;;;8.50;100.00
48652;BME280;34442;52.362;-1.302;2023-12-20T03:58:36;100544.19;;;8.75;100.00
48652;BME280;34442;52.362;-1.302;2023-12-20T04:01:02;100545.84;;;8.76;100.00
48652;BME280;34442;52.362;-1.302;2023-12-20T04:03:27;100543.56;;;8.94;100.00
48652;BME280;34442;52.362;-1.302;2023-12-20T04:05:53;100545.41;;;8.94;100.00
48652;BME280;34442;52.362;-1.302;2023-12-20T04:08:19;100542.22;;;8.84;100.00
48652;BME280;34442;52.362;-1.302;2023-12-20T04:10:44;100547.06;;;8.52;100.00
48652;BME280;34442;52.362;-1.302;2023-12-20T04:13:09;100551.69;;;8.43;100.00
48652;BME280;34442;52.362;-1.302;2023-12-20T04:15:35;100541.97;;;8.79;100.00
48652;BME280;34442;52.362;-1.302;2023-12-20T04:18:00;100539.66;;;8.76;100.00
48652;BME280;34442;52.362;-1.302;2023-12-20T04:20:25;100531.16;;;8.51;100.00
48652;BME280;34442;52.362;-1.302;2023-12-20T04:22:51;100539.13;;;8.44;100.00
48652;BME280;34442;52.362;-1.302;2023-12-20T04:25:16;100539.13;;;8.44;100.00
48652;BME280;34442;52.362;-1.302;2023-12-20T04:27:42;100535.41;;;8.30;100.00
48652;BME280;34442;52.362;-1.302;2023-12-20T04:30:07;100540.72;;;8.24;100.00
48652;BME280;34442;52.362;-1.302;2023-12-20T04:32:33;100537.09;;;8.16;100.00
48652;BME280;34442;52.362;-1.302;2023-12-20T04:34:58;100530.81;;;8.24;100.00
48652;BME280;34442;52.362;-1.302;2023-12-20T04:37:24;100540.03;;;8.36;100.00
48652;BME280;34442;52.362;-1.302;2023-12-20T04:39:49;100535.34;;;8.24;100.00
48652;BME280;34442;52.362;-1.302;2023-12-20T04:42:15;100534.44;;;8.16;100.00
48652;BME280;34442;52.362;-1.302;2023-12-20T04:44:40;100542.34;;;8.25;100.00
48652;BME280;34442;52.362;-1.302;2023-12-20T04:47:06;100526.34;;;8.46;100.00
48652;BME280;34442;52.362;-1.302;2023-12-20T04:49:31;100519.91;;;8.40;100.00
48652;BME280;34442;52.362;-1.302;2023-12-20T04:51:57;100513.53;;;8.41;100.00
48652;BME280;34442;52.362;-1.302;2023-12-20T04:54:22;100524.59;;;8.75;100.00
48652;BME280;34442;52.362;-1.302;2023-12-20T04:56:47;100530.09;;;8.66;100.00
48652;BME280;34442;52.362;-1.302;2023-12-20T04:59:13;100524.34;;;8.91;100.00
48652;BME280;34442;52.362;-1.302;2023-12-20T05:01:38;100522.16;;;8.80;100.00
48652;BME280;34442;52.362;-1.302;2023-12-20T05:04:04;100524.22;;;8.78;100.00
48652;BME280;34442;52.362;-1.302;2023-12-20T05:06:29;100515.84;;;8.66;100.00
48652;BME280;34442;52.362;-1.302;2023-12-20T05:08:55;100518.53;;;8.66;100.00
48652;BME280;34442;52.362;-1.302;2023-12-20T05:11:20;100519.16;;;8.68;100.00
48652;BME280;34442;52.362;-1.302;2023-12-20T05:13:45;100519.69;;;8.78;100.00
48652;BME280;34442;52.362;-1.302;2023-12-20T05:16:11;100520.88;;;8.76;100.00
48652;BME280;34442;52.362;-1.302;2023-12-20T05:18:39;100520.25;;;8.74;100.00
48652;BME280;34442;52.362;-1.302;2023-12-20T05:21:04;100522.63;;;8.83;100.00
48652;BME280;34442;52.362;-1.302;2023-12-20T05:23:29;100526.78;;;8.86;100.00
48652;BME280;34442;52.362;-1.302;2023-12-20T05:25:55;100523.75;;;8.95;100.00
48652;BME280;34442;52.362;-1.302;2023-12-20T05:28:20;100522.44;;;8.85;100.00
48652;BME280;34442;52.362;-1.302;2023-12-20T05:30:46;100517.38;;;8.97;100.00
48652;BME280;34442;52.362;-1.302;2023-12-20T05:33:11;100521.97;;;9.03;100.00
48652;BME280;34442;52.362;-1.302;2023-12-20T05:35:37;100511.06;;;9.04;100.00
48652;BME280;34442;52.362;-1.302;2023-12-20T05:38:02;100501.50;;;8.95;100.00
48652;BME280;34442;52.362;-1.302;2023-12-20T05:40:27;100505.56;;;8.91;100.00
48652;BME280;34442;52.362;-1.302;2023-12-20T05:42:53;100505.00;;;8.95;100.00
48652;BME280;34442;52.362;-1.302;2023-12-20T05:45:19;100503.09;;;8.89;100.00
48652;BME280;34442;52.362;-1.302;2023-12-20T05:47:44;100502.09;;;8.69;100.00
48652;BME280;34442;52.362;-1.302;2023-12-20T05:50:09;100501.38;;;8.82;100.00
48652;BME280;34442;52.362;-1.302;2023-12-20T05:52:35;100499.31;;;8.84;100.00
48652;BME280;34442;52.362;-1.302;2023-12-20T05:55:00;100488.56;;;8.77;100.00
48652;BME280;34442;52.362;-1.302;2023-12-20T05:57:28;100488.84;;;8.67;100.00
48652;BME280;34442;52.362;-1.302;2023-12-20T05:59:54;100494.88;;;8.48;100.00
48652;BME280;34442;52.362;-1.302;2023-12-20T06:02:19;100483.31;;;8.69;100.00
48652;BME280;34442;52.362;-1.302;2023-12-20T06:04:45;100489.38;;;8.56;100.00
48652;BME280;34442;52.362;-1.302;2023-12-20T06:07:12;100480.75;;;8.82;100.00
48652;BME280;34442;52.362;-1.302;2023-12-20T06:09:38;100485.56;;;8.65;100.00
48652;BME280;34442;52.362;-1.302;2023-12-20T06:12:04;100477.19;;;8.75;100.00
48652;BME280;34442;52.362;-1.302;2023-12-20T06:14:29;100480.25;;;8.72;100.00
48652;BME280;34442;52.362;-1.302;2023-12-20T06:16:56;100480.06;;;8.52;100.00
48652;BME280;34442;52.362;-1.302;2023-12-20T06:19:22;100491.41;;;8.54;100.00
48652;BME280;34442;52.362;-1.302;2023-12-20T06:21:47;100487.19;;;8.45;100.00
48652;BME280;34442;52.362;-1.302;2023-12-20T06:24:13;100495.75;;;8.55;100.00
48652;BME280;34442;52.362;-1.302;2023-12-20T06:26:38;100497.47;;;8.63;100.00
48652;BME280;34442;52.362;-1.302;2023-12-20T06:29:04;100504.19;;;8.74;100.00
48652;BME280;34442;52.362;-1.302;2023-12-20T06:31:29;100505.38;;;8.71;100.00
48652;BME280;34442;52.362;-1.302;2023-12-20T06:33:54;100493.84;;;8.70;100.00
48652;BME280;34442;52.362;-1.302;2023-12-20T06:36:23;100502.91;;;8.48;100.00
48652;BME280;34442;52.362;-1.302;2023-12-20T06:38:50;100490.34;;;8.70;100.00
48652;BME280;34442;52.362;-1.302;2023-12-20T06:41:16;100492.69;;;8.58;100.00
48652;BME280;34442;52.362;-1.302;2023-12-20T06:43:42;100495.00;;;8.61;100.00
48652;BME280;34442;52.362;-1.302;2023-12-20T06:46:07;100457.78;;;8.73;100.00
48652;BME280;34442;52.362;-1.302;2023-12-20T06:48:34;100464.03;;;8.59;100.00
48652;BME280;34442;52.362;-1.302;2023-12-20T06:51:00;100454.28;;;8.73;100.00
48652;BME280;34442;52.362;-1.302;2023-12-20T06:53:27;100455.03;;;8.66;100.00
48652;BME280;34442;52.362;-1.302;2023-12-20T06:55:53;100448.78;;;8.38;100.00
48652;BME280;34442;52.362;-1.302;2023-12-20T06:58:18;100460.75;;;8.57;100.00
48652;BME280;34442;52.362;-1.302;2023-12-20T07:00:44;100475.53;;;8.53;100.00
48652;BME280;34442;52.362;-1.302;2023-12-20T07:03:09;100471.69;;;8.40;100.00
48652;BME280;34442;52.362;-1.302;2023-12-20T07:05:35;100469.06;;;8.47;100.00
48652;BME280;34442;52.362;-1.302;2023-12-20T07:08:00;100456.66;;;8.61;100.00
48652;BME280;34442;52.362;-1.302;2023-12-20T07:10:25;100470.19;;;8.53;100.00
48652;BME280;34442;52.362;-1.302;2023-12-20T07:12:51;100467.75;;;8.58;100.00
48652;BME280;34442;52.362;-1.302;2023-12-20T07:15:17;100466.41;;;8.68;100.00
48652;BME280;34442;52.362;-1.302;2023-12-20T07:17:43;100461.59;;;8.64;100.00
48652;BME280;34442;52.362;-1.302;2023-12-20T07:20:09;100470.50;;;8.64;100.00
48652;BME280;34442;52.362;-1.302;2023-12-20T07:22:36;100470.22;;;8.38;100.00
48652;BME280;34442;52.362;-1.302;2023-12-20T07:25:02;100467.25;;;8.69;100.00
48652;BME280;34442;52.362;-1.302;2023-12-20T07:27:28;100479.63;;;8.70;100.00
48652;BME280;34442;52.362;-1.302;2023-12-20T07:29:54;100490.13;;;8.72;100.00
48652;BME280;34442;52.362;-1.302;2023-12-20T07:32:22;100488.72;;;8.54;100.00
48652;BME280;34442;52.362;-1.302;2023-12-20T07:34:48;100488.72;;;8.54;100.00
48652;BME280;34442;52.362;-1.302;2023-12-20T07:37:14;100483.91;;;8.64;100.00
48652;BME280;34442;52.362;-1.302;2023-12-20T07:39:40;100479.41;;;8.93;100.00
48652;BME280;34442;52.362;-1.302;2023-12-20T07:42:06;100483.25;;;8.62;100.00
48652;BME280;34442;52.362;-1.302;2023-12-20T07:44:32;100504.63;;;8.77;100.00
48652;BME280;34442;52.362;-1.302;2023-12-20T07:46:57;100504.44;;;8.79;100.00
48652;BME280;34442;52.362;-1.302;2023-12-20T07:49:23;100512.03;;;8.75;100.00
48652;BME280;34442;52.362;-1.302;2023-12-20T07:51:49;100516.34;;;8.76;100.00
48652;BME280;34442;52.362;-1.302;2023-12-20T07:54:15;100516.44;;;8.83;100.00
48652;BME280;34442;52.362;-1.302;2023-12-20T07:56:41;100526.41;;;8.89;100.00
48652;BME280;34442;52.362;-1.302;2023-12-20T07:59:06;100518.47;;;8.59;100.00
48652;BME280;34442;52.362;-1.302;2023-12-20T08:01:32;100520.38;;;8.87;100.00
48652;BME280;34442;52.362;-1.302;2023-12-20T08:03:57;100512.47;;;8.79;100.00
48652;BME280;34442;52.362;-1.302;2023-12-20T08:06:23;100503.09;;;8.89;100.00
48652;BME280;34442;52.362;-1.302;2023-12-20T08:08:48;100496.84;;;8.82;100.00
48652;BME280;34442;52.362;-1.302;2023-12-20T08:11:14;100499.28;;;8.77;100.00
48652;BME280;34442;52.362;-1.302;2023-12-20T08:13:39;100499.16;;;8.85;100.00
48652;BME280;34442;52.362;-1.302;2023-12-20T08:16:05;100503.75;;;8.70;100.00
48652;BME280;34442;52.362;-1.302;2023-12-20T08:18:31;100504.09;;;8.67;100.00
48652;BME280;34442;52.362;-1.302;2023-12-20T08:20:56;100505.19;;;8.94;100.00
48652;BME280;34442;52.362;-1.302;2023-12-20T08:23:22;100502.56;;;9.01;100.00
48652;BME280;34442;52.362;-1.302;2023-12-20T08:25:49;100514.19;;;9.08;100.00
48652;BME280;34442;52.362;-1.302;2023-12-20T08:28:14;100502.34;;;9.24;100.00
48652;BME280;34442;52.362;-1.302;2023-12-20T08:30:40;100508.06;;;9.14;100.00
48652;BME280;34442;52.362;-1.302;2023-12-20T08:33:06;100504.59;;;9.20;100.00
48652;BME280;34442;52.362;-1.302;2023-12-20T08:35:37;100503.84;;;9.33;100.00
48652;BME280;34442;52.362;-1.302;2023-12-20T08:38:02;100506.16;;;9.36;100.00
48652;BME280;34442;52.362;-1.302;2023-12-20T08:40:29;100507.22;;;9.41;100.00
48652;BME280;34442;52.362;-1.302;2023-12-20T08:42:55;100501.00;;;9.34;100.00
48652;BME280;34442;52.362;-1.302;2023-12-20T08:45:20;100508.97;;;9.56;100.00
48652;BME280;34442;52.362;-1.302;2023-12-20T08:47:46;100516.38;;;9.54;100.00
48652;BME280;34442;52.362;-1.302;2023-12-20T08:50:11;100514.63;;;9.39;100.00
48652;BME280;34442;52.362;-1.302;2023-12-20T08:52:37;100504.50;;;9.35;100.00
48652;BME280;34442;52.362;-1.302;2023-12-20T08:55:03;100513.50;;;9.27;100.00
48652;BME280;34442;52.362;-1.302;2023-12-20T08:57:28;100517.25;;;9.33;100.00
48652;BME280;34442;52.362;-1.302;2023-12-20T08:59:53;100519.84;;;9.48;100.00
48652;BME280;34442;52.362;-1.302;2023-12-20T09:02:19;100524.94;;;9.36;100.00
48652;BME280;34442;52.362;-1.302;2023-12-20T09:04:44;100534.47;;;9.45;100.00
48652;BME280;34442;52.362;-1.302;2023-12-20T09:07:26;100537.00;;;9.47;100.00
48652;BME280;34442;52.362;-1.302;2023-12-20T09:09:53;100526.78;;;9.63;100.00
48652;BME280;34442;52.362;-1.302;2023-12-20T09:12:19;100508.28;;;9.75;100.00
48652;BME280;34442;52.362;-1.302;2023-12-20T09:14:49;100518.81;;;9.49;100.00
48652;BME280;34442;52.362;-1.302;2023-12-20T09:17:16;100513.81;;;9.74;100.00
48652;BME280;34442;52.362;-1.302;2023-12-20T09:19:43;100510.69;;;9.63;100.00
48652;BME280;34442;52.362;-1.302;2023-12-20T09:22:11;100504.50;;;9.69;100.00
48652;BME280;34442;52.362;-1.302;2023-12-20T09:24:37;100506.63;;;9.81;100.00
48652;BME280;34442;52.362;-1.302;2023-12-20T09:27:04;100505.69;;;9.60;100.00
48652;BME280;34442;52.362;-1.302;2023-12-20T09:29:30;100512.56;;;9.69;100.00
48652;BME280;34442;52.362;-1.302;2023-12-20T09:31:56;100514.41;;;9.69;100.00
48652;BME280;34442;52.362;-1.302;2023-12-20T09:34:23;100507.47;;;9.81;100.00
48652;BME280;34442;52.362;-1.302;2023-12-20T09:36:48;100512.16;;;9.73;100.00
48652;BME280;34442;52.362;-1.302;2023-12-20T09:39:14;100513.88;;;9.80;100.00
48652;BME280;34442;52.362;-1.302;2023-12-20T09:41:44;100516.06;;;10.05;100.00
48652;BME280;34442;52.362;-1.302;2023-12-20T09:44:15;100517.00;;;9.90;100.00
48652;BME280;34442;52.362;-1.302;2023-12-20T09:46:45;100524.72;;;10.00;100.00
48652;BME280;34442;52.362;-1.302;2023-12-20T09:49:12;100525.34;;;10.02;100.00
48652;BME280;34442;52.362;-1.302;2023-12-20T09:51:39;100520.63;;;10.11;100.00
48652;BME280;34442;52.362;-1.302;2023-12-20T09:54:06;100514.09;;;9.85;100.00
48652;BME280;34442;52.362;-1.302;2023-12-20T09:56:31;100520.34;;;9.92;100.00
48652;BME280;34442;52.362;-1.302;2023-12-20T09:58:57;100510.44;;;10.00;100.00
48652;BME280;34442;52.362;-1.302;2023-12-20T10:01:23;100506.47;;;9.89;100.00
48652;BME280;34442;52.362;-1.302;2023-12-20T10:03:51;100508.00;;;10.11;100.00
48652;BME280;34442;52.362;-1.302;2023-12-20T10:06:19;100500.75;;;10.05;100.00
48652;BME280;34442;52.362;-1.302;2023-12-20T10:08:44;100503.91;;;10.15;100.00
48652;BME280;34442;52.362;-1.302;2023-12-20T10:11:10;100508.25;;;10.16;100.00
48652;BME280;34442;52.362;-1.302;2023-12-20T10:13:40;100499.13;;;10.04;100.00
48652;BME280;34442;52.362;-1.302;2023-12-20T10:16:06;100500.59;;;10.20;100.00
48652;BME280;34442;52.362;-1.302;2023-12-20T10:18:32;100488.91;;;10.34;100.00
48652;BME280;34442;52.362;-1.302;2023-12-20T10:20:58;100491.53;;;10.21;100.00
48652;BME280;34442;52.362;-1.302;2023-12-20T10:23:24;100493.19;;;10.22;100.00
48652;BME280;34442;52.362;-1.302;2023-12-20T10:25:59;100480.63;;;10.36;100.00
48652;BME280;34442;52.362;-1.302;2023-12-20T10:28:25;100478.72;;;10.23;100.00
48652;BME280;34442;52.362;-1.302;2023-12-20T10:30:54;100483.72;;;10.26;100.00
48652;BME280;34442;52.362;-1.302;2023-12-20T10:33:24;100477.81;;;10.03;100.00
48652;BME280;34442;52.362;-1.302;2023-12-20T10:35:51;100475.09;;;10.37;100.00
48652;BME280;34442;52.362;-1.302;2023-12-20T10:38:17;100474.00;;;10.32;100.00
48652;BME280;34442;52.362;-1.302;2023-12-20T10:40:45;100477.56;;;10.39;100.00
48652;BME280;34442;52.362;-1.302;2023-12-20T10:43:11;100472.81;;;10.48;100.00
48652;BME280;34442;52.362;-1.302;2023-12-20T10:45:37;100487.53;;;10.65;100.00
48652;BME280;34442;52.362;-1.302;2023-12-20T10:48:03;100484.41;;;10.61;100.00
48652;BME280;34442;52.362;-1.302;2023-12-20T10:50:30;100478.84;;;10.76;100.00
48652;BME280;34442;52.362;-1.302;2023-12-20T10:52:57;100478.88;;;10.83;100.00
48652;BME280;34442;52.362;-1.302;2023-12-20T10:55:23;100466.41;;;10.49;100.00
48652;BME280;34442;52.362;-1.302;2023-12-20T10:57:54;100451.75;;;10.71;100.00
48652;BME280;34442;52.362;-1.302;2023-12-20T11:00:24;100439.78;;;11.00;100.00
48652;BME280;34442;52.362;-1.302;2023-12-20T11:02:51;100434.38;;;10.67;100.00
48652;BME280;34442;52.362;-1.302;2023-12-20T11:08:13;100425.91;;;10.83;100.00
48652;BME280;34442;52.362;-1.302;2023-12-20T11:13:48;100401.06;;;10.61;100.00
48652;BME280;34442;52.362;-1.302;2023-12-20T11:16:19;100392.81;;;10.69;100.00
48652;BME280;34442;52.362;-1.302;2023-12-20T11:18:45;100393.00;;;10.88;100.00
48652;BME280;34442;52.362;-1.302;2023-12-20T11:21:11;100388.25;;;10.77;100.00
48652;BME280;34442;52.362;-1.302;2023-12-20T11:23:36;100378.34;;;10.64;100.00
48652;BME280;34442;52.362;-1.302;2023-12-20T11:26:02;100371.88;;;11.05;100.00
48652;BME280;34442;52.362;-1.302;2023-12-20T11:28:28;100362.16;;;10.97;100.00
48652;BME280;34442;52.362;-1.302;2023-12-20T11:30:56;100361.72;;;11.13;100.00
48652;BME280;34442;52.362;-1.302;2023-12-20T11:33:38;100363.13;;;11.36;100.00
48652;BME280;34442;52.362;-1.302;2023-12-20T11:36:13;100344.78;;;11.00;100.00
48652;BME280;34442;52.362;-1.302;2023-12-20T11:38:38;100363.59;;;11.20;100.00
48652;BME280;34442;52.362;-1.302;2023-12-20T11:41:07;100362.34;;;11.09;100.00
48652;BME280;34442;52.362;-1.302;2023-12-20T11:43:39;100371.03;;;11.24;100.00
48652;BME280;34442;52.362;-1.302;2023-12-20T11:46:10;100354.88;;;11.11;100.00
48652;BME280;34442;52.362;-1.302;2023-12-20T11:48:37;100341.84;;;11.21;100.00
48652;BME280;34442;52.362;-1.302;2023-12-20T11:51:09;100334.75;;;11.33;100.00
48652;BME280;34442;52.362;-1.302;2023-12-20T11:53:35;100334.25;;;10.85;100.00
48652;BME280;34442;52.362;-1.302;2023-12-20T11:56:03;100332.16;;;11.00;100.00
48652;BME280;34442;52.362;-1.302;2023-12-20T11:58:29;100323.13;;;10.75;100.00
48652;BME280;34442;52.362;-1.302;2023-12-20T12:00:55;100310.31;;;10.70;100.00
48652;BME280;34442;52.362;-1.302;2023-12-20T12:03:20;100319.16;;;10.77;100.00
48652;BME280;34442;52.362;-1.302;2023-12-20T12:05:47;100314.38;;;10.92;100.00
48652;BME280;34442;52.362;-1.302;2023-12-20T12:08:12;100306.44;;;11.24;100.00
48652;BME280;34442;52.362;-1.302;2023-12-20T12:10:38;100305.41;;;11.18;100.00
48652;BME280;34442;52.362;-1.302;2023-12-20T12:13:04;100293.66;;;11.06;100.00
48652;BME280;34442;52.362;-1.302;2023-12-20T12:15:29;100296.75;;;11.10;100.00
48652;BME280;34442;52.362;-1.302;2023-12-20T12:17:56;100283.28;;;11.16;100.00
48652;BME280;34442;52.362;-1.302;2023-12-20T12:20:22;100287.88;;;11.03;100.00
48652;BME280;34442;52.362;-1.302;2023-12-20T12:23:02;100295.91;;;11.16;100.00
48652;BME280;34442;52.362;-1.302;2023-12-20T12:25:32;100297.72;;;11.29;100.00
48652;BME280;34442;52.362;-1.302;2023-12-20T12:28:01;100309.56;;;11.14;100.00
48652;BME280;34442;52.362;-1.302;2023-12-20T12:30:26;100311.66;;;11.06;100.00
48652;BME280;34442;52.362;-1.302;2023-12-20T12:32:52;100303.41;;;11.07;100.00
48652;BME280;34442;52.362;-1.302;2023-12-20T12:35:18;100283.63;;;11.33;100.00
48652;BME280;34442;52.362;-1.302;2023-12-20T12:37:44;100268.72;;;11.31;100.00